Time;durP1;ratioP1;P1;durP2;ratioP2;P2;SDS_P1;SDS_P2;PMS_P1;PMS_P2;Temp;Humidity;BMP_temperature;BMP_pressure;BME280_temperature;BME280_humidity;BME280_pressure;Samples;Min_cycle;Max_cycle;Signal;HPM_P1;HPM_P2
2022/11/02 00:04:44;;;;;;;8.13;3.43;;;;;;;11.11;57.33;100265.94;10608089;27;20320;-67
2022/11/02 00:09:46;;;;;;;12.23;3.43;;;;;;;10.32;58.84;100283.59;10606539;27;20236;-68
2022/11/02 00:14:47;;;;;;;6.07;3.80;;;;;;;9.85;59.89;100291.53;10617168;27;20265;-70
2022/11/02 00:19:49;;;;;;;8.20;3.23;;;;;;;9.77;59.50;100300.38;10616566;27;20861;-67
2022/11/02 00:24:51;;;;;;;7.20;3.83;;;;;;;9.98;59.29;100293.69;10611680;27;20232;-68
2022/11/02 00:29:53;;;;;;;6.13;3.00;;;;;;;9.93;59.00;100292.34;10615639;27;20236;-68
2022/11/02 00:34:54;;;;;;;6.27;3.57;;;;;;;10.59;58.04;100283.38;10611128;27;20296;-69
2022/11/02 00:39:56;;;;;;;6.40;3.47;;;;;;;11.43;56.45;100251.50;10609452;27;20225;-71
2022/11/02 00:44:57;;;;;;;8.50;3.30;;;;;;;10.62;58.19;100304.44;10615303;27;20236;-70
2022/11/02 00:49:59;;;;;;;7.07;2.93;;;;;;;10.55;58.98;100282.91;10610852;27;20226;-68
2022/11/02 00:55:01;;;;;;;5.43;2.80;;;;;;;9.99;60.10;100300.69;10579788;27;20253;-67
2022/11/02 01:00:04;;;;;;;5.40;3.23;;;;;;;10.41;58.56;100291.63;10566772;27;20240;-75
2022/11/02 01:05:07;;;;;;;7.40;3.30;;;;;;;10.65;58.58;100283.53;10566802;27;20268;-75
2022/11/02 01:10:09;;;;;;;9.63;3.30;;;;;;;9.49;60.37;100319.34;10551646;27;20877;-75
2022/11/02 01:15:11;;;;;;;5.63;3.13;;;;;;;10.50;58.25;100312.00;10578658;27;20229;-73
2022/11/02 01:20:13;;;;;;;4.60;2.90;;;;;;;11.12;58.49;100268.47;10563160;27;20250;-73
2022/11/02 01:25:15;;;;;;;5.87;2.87;;;;;;;11.50;56.65;100270.38;10570762;27;20221;-73
2022/11/02 01:30:17;;;;;;;9.73;3.77;;;;;;;10.39;58.78;100320.38;10571499;27;20233;-73
2022/11/02 01:35:18;;;;;;;8.97;3.20;;;;;;;11.48;56.63;100289.31;10596587;27;20902;-73
2022/11/02 01:40:20;;;;;;;5.07;2.73;;;;;;;12.58;54.84;100266.56;10544854;27;20216;-73
2022/11/02 01:45:22;;;;;;;7.47;2.70;;;;;;;12.41;55.37;100255.16;10567026;27;20236;-72
2022/11/02 01:50:26;;;;;;;9.00;3.30;;;;;;;12.36;54.43;100330.03;10566583;27;20229;-74
2022/11/02 01:55:32;;;;;;;8.77;3.57;;;;;;;12.29;54.37;100342.50;10565934;27;20289;-71
2022/11/02 02:00:36;;;;;;;8.97;3.60;;;;;;;11.59;55.91;100368.47;10565000;27;20229;-70
2022/11/02 02:05:41;;;;;;;4.70;3.10;;;;;;;12.25;54.74;100343.88;10566611;27;20237;-74
2022/11/02 02:10:43;;;;;;;9.37;2.80;;;;;;;11.73;55.64;100365.06;10559861;27;20220;-74
2022/11/02 02:16:19;;;;;;;6.87;3.53;;;;;;;11.94;55.13;100361.72;10573386;27;20298;-74
2022/11/02 02:22:02;;;;;;;6.93;3.30;;;;;;;12.57;54.55;100332.03;10572609;27;20999;-74
2022/11/02 02:27:14;;;;;;;6.53;3.10;;;;;;;12.53;53.78;100341.44;10386677;28;20273;-74
2022/11/02 02:32:39;;;;;;;8.83;2.80;;;;;;;13.52;52.92;100310.69;10531759;27;20228;-71
2022/11/02 02:37:48;;;;;;;9.03;3.17;;;;;;;12.77;54.07;100347.56;10563374;27;20228;-73
2022/11/02 02:42:58;;;;;;;6.63;2.90;;;;;;;12.89;53.52;100357.69;10601599;27;20241;-72
2022/11/02 02:48:12;;;;;;;5.53;3.00;;;;;;;12.17;54.31;100375.13;10600678;27;20310;-73
2022/11/02 02:53:18;;;;;;;5.00;3.10;;;;;;;13.21;52.44;100339.50;10591428;27;20730;-74
2022/11/02 02:58:24;;;;;;;6.47;2.43;;;;;;;13.72;51.65;100343.19;10590595;27;20233;-73
2022/11/02 03:03:28;;;;;;;9.50;3.30;;;;;;;13.03;52.95;100369.44;10590348;27;20293;-75
2022/11/02 03:08:31;;;;;;;6.53;2.70;;;;;;;12.88;53.37;100371.28;10581749;27;20225;-71
2022/11/02 03:13:36;;;;;;;6.70;2.87;;;;;;;13.02;52.84;100372.28;10566622;27;20256;-74
2022/11/02 03:19:13;;;;;;;5.90;2.97;;;;;;;12.59;54.10;100390.88;10564984;27;20904;-73
2022/11/02 03:24:38;;;;;;;9.40;2.90;;;;;;;12.25;54.73;100392.16;10557059;27;20229;-70
2022/11/02 03:29:48;;;;;;;9.27;3.27;;;;;;;12.44;54.31;100380.94;10551370;27;20907;-73
2022/11/02 03:35:02;;;;;;;8.00;3.40;;;;;;;12.24;54.94;100402.06;10568844;27;21008;-73
2022/11/02 03:40:08;;;;;;;4.40;3.37;;;;;;;12.22;53.78;100397.91;10569556;27;20233;-73
2022/11/02 03:45:14;;;;;;;7.23;3.47;;;;;;;12.67;53.88;100369.31;10575340;27;20270;-75
2022/11/02 03:50:21;;;;;;;7.37;3.53;;;;;;;12.46;54.83;100384.25;10578184;27;20588;-73
2022/11/02 03:55:32;;;;;;;9.17;3.20;;;;;;;12.73;53.93;100369.41;10570935;27;20240;-72
2022/11/02 04:00:35;;;;;;;10.00;3.37;;;;;;;11.31;56.99;100368.16;10573774;27;20282;-70
2022/11/02 04:05:37;;;;;;;8.77;3.00;;;;;;;11.55;57.33;100388.63;10613213;27;20359;-74
2022/11/02 04:14:36;;;;;;;9.47;3.47;;;;;;;12.02;56.09;100393.03;10610758;27;20232;-72
2022/11/02 04:16:00;;;;;;;6.63;2.90;;;;;;;12.91;54.51;100376.28;10619216;27;21001;-73
2022/11/02 04:21:02;;;;;;;10.53;3.93;;;;;;;12.64;54.75;100410.81;10621554;27;20256;-73
2022/11/02 04:26:04;;;;;;;9.77;3.77;;;;;;;12.43;55.28;100442.84;10611347;27;20292;-73
2022/11/02 04:31:07;;;;;;;6.83;3.70;;;;;;;10.96;57.93;100446.09;10613644;27;20224;-74
2022/11/02 04:36:08;;;;;;;6.10;3.50;;;;;;;10.75;58.13;100461.84;10609996;27;20220;-72
2022/11/02 04:46:41;;;;;;;8.10;3.33;;;;;;;12.49;54.89;100440.31;10615723;27;20913;-73
2022/11/02 04:51:42;;;;;;;6.90;3.50;;;;;;;10.54;59.48;100460.50;10623930;27;20296;-67
2022/11/02 04:56:50;;;;;;;7.47;3.80;;;;;;;11.65;58.13;100453.59;10580553;27;20216;-69
2022/11/02 05:01:51;;;;;;;13.53;6.07;;;;;;;11.74;58.50;100431.09;10575258;27;20229;-68
2022/11/02 05:06:53;;;;;;;6.93;3.70;;;;;;;11.10;60.67;100431.16;10573033;27;20282;-68
2022/11/02 05:12:03;;;;;;;7.03;3.03;;;;;;;11.92;58.51;100424.63;10588111;27;20238;-68
2022/11/02 05:17:05;;;;;;;8.77;2.70;;;;;;;11.59;59.06;100449.75;10577412;27;20590;-67
2022/11/02 05:22:07;;;;;;;9.37;3.20;;;;;;;11.33;59.47;100447.31;10588055;27;20228;-67
2022/11/02 05:27:09;;;;;;;7.40;2.80;;;;;;;12.40;56.96;100419.06;10572726;27;20233;-67
2022/11/02 05:32:11;;;;;;;5.63;2.90;;;;;;;12.23;57.23;100458.59;10574675;27;20573;-67
2022/11/02 05:37:12;;;;;;;7.67;3.20;;;;;;;12.46;56.96;100456.75;10563457;27;20720;-68
2022/11/02 05:42:14;;;;;;;7.93;3.30;;;;;;;11.09;59.11;100485.75;10568707;27;20940;-67
2022/11/02 05:47:16;;;;;;;9.33;3.97;;;;;;;12.67;56.31;100469.53;10580583;27;21044;-67
2022/11/02 05:52:17;;;;;;;6.23;3.00;;;;;;;12.94;55.55;100483.38;10581657;27;20224;-67
2022/11/02 05:57:19;;;;;;;10.77;3.60;;;;;;;13.40;54.21;100490.47;10564720;27;20297;-66
2022/11/02 06:02:21;;;;;;;8.60;3.10;;;;;;;12.73;54.59;100525.16;10568333;27;20225;-67
2022/11/02 06:07:26;;;;;;;7.33;3.27;;;;;;;12.52;54.42;100533.91;10565066;27;20308;-68
2022/11/02 06:12:27;;;;;;;9.00;3.37;;;;;;;13.23;54.60;100519.34;10567052;27;20293;-67
2022/11/02 06:17:39;;;;;;;7.90;3.50;;;;;;;13.31;54.45;100516.59;10567428;27;20745;-69
2022/11/02 06:22:42;;;;;;;7.53;3.47;;;;;;;12.47;55.50;100576.56;10567191;27;20224;-70
2022/11/02 06:27:55;;;;;;;11.17;3.13;;;;;;;12.08;55.83;100587.28;10552375;27;20929;-67
2022/11/02 06:32:57;;;;;;;6.07;3.20;;;;;;;12.00;56.60;100574.78;10571854;27;20228;-68
2022/11/02 06:38:06;;;;;;;7.27;3.33;;;;;;;11.74;57.05;100578.56;10570242;27;20280;-69
2022/11/02 06:43:08;;;;;;;9.40;4.13;;;;;;;11.18;58.95;100561.56;10563079;27;20285;-68
2022/11/02 06:48:18;;;;;;;8.73;2.93;;;;;;;12.03;56.42;100571.75;10561471;27;20216;-66
2022/11/02 06:53:20;;;;;;;7.00;2.93;;;;;;;12.50;54.96;100586.09;10561064;27;20805;-66
2022/11/02 06:58:23;;;;;;;9.47;3.53;;;;;;;12.14;55.73;100600.03;10565787;27;20255;-66
2022/11/02 07:03:25;;;;;;;7.60;3.50;;;;;;;12.29;56.21;100595.56;10561268;27;20233;-68
2022/11/02 07:08:27;;;;;;;6.47;3.10;;;;;;;12.25;56.06;100625.63;10561800;27;20229;-69
2022/11/02 07:13:28;;;;;;;7.70;3.23;;;;;;;12.34;55.19;100629.94;10571104;27;20240;-68
2022/11/02 07:18:30;;;;;;;10.27;3.50;;;;;;;12.26;55.81;100641.53;10576977;27;20894;-69
2022/11/02 07:23:32;;;;;;;12.20;3.40;;;;;;;12.28;56.37;100638.69;10569320;27;20341;-69
2022/11/02 07:28:35;;;;;;;8.70;3.53;;;;;;;11.85;56.80;100656.97;10585614;27;20232;-75
2022/11/02 07:33:37;;;;;;;6.10;3.50;;;;;;;12.80;55.46;100632.72;10614841;27;20726;-74
2022/11/02 07:38:38;;;;;;;6.93;3.97;;;;;;;12.68;54.98;100634.97;10622807;27;20235;-73
2022/11/02 07:43:40;;;;;;;9.60;3.53;;;;;;;12.77;54.85;100651.03;10628829;27;20623;-72
2022/11/02 07:48:46;;;;;;;7.57;3.40;;;;;;;12.78;54.42;100677.72;10619878;27;20266;-74
2022/11/02 07:53:47;;;;;;;9.97;3.93;;;;;;;13.19;54.37;100676.59;10620455;27;20251;-75
2022/11/02 07:58:49;;;;;;;9.23;3.03;;;;;;;12.96;54.67;100681.97;10620954;27;20472;-75
2022/11/02 08:03:50;;;;;;;7.13;3.37;;;;;;;12.89;54.74;100690.75;10615606;27;20335;-75
2022/11/02 08:08:52;;;;;;;6.43;2.97;;;;;;;13.32;54.58;100673.34;10611756;27;20517;-73
2022/11/02 08:13:54;;;;;;;9.67;2.80;;;;;;;13.63;53.36;100687.50;10615105;27;20468;-73
2022/11/02 08:18:58;;;;;;;9.53;3.70;;;;;;;12.98;54.06;100729.13;10614616;27;20320;-75
2022/11/02 08:23:59;;;;;;;6.37;3.10;;;;;;;13.42;53.44;100708.88;10620251;27;20228;-72
2022/11/02 08:29:02;;;;;;;10.93;4.23;;;;;;;13.66;52.27;100707.81;10613109;27;20581;-75
2022/11/02 08:34:03;;;;;;;8.80;3.37;;;;;;;13.49;53.04;100717.88;10612953;27;20282;-73
2022/11/02 08:39:05;;;;;;;12.33;3.00;;;;;;;13.51;52.84;100721.22;10617587;27;20244;-73
2022/11/02 08:44:06;;;;;;;7.03;3.30;;;;;;;13.70;52.51;100725.28;10616480;27;20257;-75
2022/11/02 08:49:08;;;;;;;7.67;3.27;;;;;;;13.40;53.00;100745.88;10624743;27;20284;-74
2022/11/02 08:54:10;;;;;;;8.77;3.00;;;;;;;13.81;52.03;100729.38;10643258;27;20742;-75
2022/11/02 08:59:12;;;;;;;4.70;2.77;;;;;;;13.97;51.96;100715.75;10625402;27;21625;-70
2022/11/02 09:04:13;;;;;;;9.73;2.83;;;;;;;13.91;52.47;100724.56;10621675;27;20232;-71
2022/11/02 09:09:15;;;;;;;6.80;2.50;;;;;;;13.41;52.73;100743.00;10618593;27;20220;-70
2022/11/02 09:14:16;;;;;;;9.33;2.77;;;;;;;13.74;51.86;100734.63;10611434;27;20216;-70
2022/11/02 09:19:18;;;;;;;6.87;2.80;;;;;;;13.59;53.45;100752.59;10609456;27;20231;-73
2022/11/02 09:24:20;;;;;;;4.63;2.60;;;;;;;14.78;50.96;100723.06;10607531;27;20224;-74
2022/11/02 09:29:21;;;;;;;7.73;3.23;;;;;;;13.30;52.69;100754.16;10615289;27;20277;-75
2022/11/02 09:34:24;;;;;;;10.77;3.03;;;;;;;14.29;52.11;100729.91;10612896;27;20415;-74
2022/11/02 09:39:25;;;;;;;4.60;2.97;;;;;;;14.30;51.80;100723.47;10585393;27;20899;-73
2022/11/02 09:44:46;;;;;;;9.10;3.27;;;;;;;14.07;52.42;100720.91;10590287;27;20240;-71
2022/11/02 09:49:49;;;;;;;12.73;3.90;;;;;;;13.84;52.16;100756.72;10613624;27;20292;-75
2022/11/02 09:54:54;;;;;;;8.97;3.27;;;;;;;15.30;50.76;100710.34;10619881;27;20216;-72
2022/11/02 09:59:56;;;;;;;16.53;3.97;;;;;;;14.30;51.44;100746.88;10613663;27;20220;-75
2022/11/02 10:04:58;;;;;;;10.60;2.93;;;;;;;13.58;52.40;100750.91;10580182;27;20443;-70
2022/11/02 10:10:04;;;;;;;8.43;3.77;;;;;;;13.81;51.82;100751.72;10564437;27;20258;-73
2022/11/02 10:15:27;;;;;;;12.70;3.53;;;;;;;13.97;51.56;100745.34;10567838;27;20712;-75
2022/11/02 10:20:37;;;;;;;9.33;3.93;;;;;;;13.52;51.46;100760.53;10571239;27;20231;-74
2022/11/02 10:25:40;;;;;;;11.47;3.03;;;;;;;14.64;50.27;100721.22;10573116;27;20228;-71
2022/11/02 10:30:43;;;;;;;11.83;3.57;;;;;;;12.81;51.93;100757.94;10575401;27;20281;-74
2022/11/02 10:36:09;;;;;;;10.80;2.90;;;;;;;13.82;50.78;100741.81;10574193;27;20259;-69
2022/11/02 10:41:41;;;;;;;11.47;4.20;;;;;;;15.18;48.88;100715.41;10568611;27;20225;-75
2022/11/02 10:46:52;;;;;;;9.63;4.00;;;;;;;15.00;48.52;100715.00;10562375;27;20568;-74
2022/11/02 10:51:54;;;;;;;9.60;3.07;;;;;;;14.84;48.21;100734.97;10569215;27;20275;-70
2022/11/02 10:56:57;;;;;;;10.47;3.43;;;;;;;14.35;47.93;100753.38;10571046;27;20224;-72
2022/11/02 11:06:11;;;;;;;6.80;3.00;;;;;;;12.15;52.08;100712.53;10370770;27;20837;-71
2022/11/02 11:11:29;;;;;;;8.97;3.57;;;;;;;13.61;50.49;100678.78;10372793;28;20225;-74
2022/11/02 11:16:35;;;;;;;9.70;3.03;;;;;;;12.95;51.27;100709.84;10323540;28;20415;-74
2022/11/02 11:21:39;;;;;;;9.73;2.80;;;;;;;14.44;48.63;100667.09;10369192;28;20239;-71
2022/11/02 11:26:41;;;;;;;5.97;3.00;;;;;;;12.72;49.01;100737.50;10352310;28;20225;-73
2022/11/02 11:31:43;;;;;;;9.50;3.07;;;;;;;14.02;47.98;100680.22;10347800;28;20940;-72
2022/11/02 11:36:44;;;;;;;7.20;2.93;;;;;;;14.48;47.87;100661.16;10350731;28;20294;-71
2022/11/02 11:41:46;;;;;;;11.67;3.10;;;;;;;12.88;48.90;100724.00;10340432;28;20665;-70
2022/11/02 11:46:58;;;;;;;7.53;3.33;;;;;;;14.21;47.43;100668.91;10354966;28;20229;-70
2022/11/02 11:52:01;;;;;;;9.90;3.30;;;;;;;13.74;47.41;100706.91;10331953;28;20232;-71
2022/11/02 11:57:35;;;;;;;8.10;2.80;;;;;;;14.67;47.08;100656.19;10343226;28;20924;-73
2022/11/02 12:02:38;;;;;;;10.30;3.77;;;;;;;14.84;47.03;100646.88;10326011;28;20290;-71
2022/11/02 12:08:14;;;;;;;8.90;3.23;;;;;;;14.42;47.22;100663.78;10362141;28;20694;-70
2022/11/02 12:13:35;;;;;;;9.80;2.83;;;;;;;15.42;46.01;100644.09;10353784;28;20237;-69
2022/11/02 12:18:48;;;;;;;10.87;3.20;;;;;;;14.66;46.39;100679.63;10341762;28;20233;-70
2022/11/02 12:24:00;;;;;;;8.73;3.67;;;;;;;14.53;45.07;100682.16;10290999;28;20245;-71
2022/11/02 12:29:23;;;;;;;9.73;3.10;;;;;;;14.88;45.18;100650.00;10332377;28;20236;-73
2022/11/02 12:34:25;;;;;;;8.97;2.83;;;;;;;14.84;45.12;100652.25;10339334;28;20248;-73
2022/11/02 12:39:41;;;;;;;7.67;2.90;;;;;;;14.98;45.26;100641.63;10326852;28;20786;-72
2022/11/02 12:44:57;;;;;;;5.37;2.60;;;;;;;14.07;44.84;100682.38;10327218;28;20848;-73
2022/11/02 12:50:11;;;;;;;6.60;2.77;;;;;;;14.72;44.55;100643.81;10331737;28;20906;-71
2022/11/02 12:55:19;;;;;;;5.27;2.70;;;;;;;13.61;44.80;100672.56;10297321;28;20291;-72
2022/11/02 13:00:21;;;;;;;9.13;2.90;;;;;;;15.89;42.44;100590.41;10310334;28;20447;-74
2022/11/02 13:05:38;;;;;;;8.73;2.70;;;;;;;14.16;43.14;100684.78;10378226;28;20228;-74
2022/11/02 13:10:56;;;;;;;9.40;2.53;;;;;;;13.87;42.89;100684.75;10425360;28;20698;-72
2022/11/02 13:16:00;;;;;;;9.93;3.07;;;;;;;14.78;42.48;100655.72;10258987;28;20297;-71
2022/11/02 13:21:03;;;;;;;9.57;3.30;;;;;;;14.75;42.53;100667.69;10133583;28;20243;-74
2022/11/02 13:26:26;;;;;;;10.77;2.83;;;;;;;14.74;42.69;100665.19;9538455;29;20375;-71
2022/11/02 13:31:40;;;;;;;6.53;2.60;;;;;;;15.25;41.97;100619.28;9401200;31;20678;-72
2022/11/02 13:36:43;;;;;;;7.50;2.57;;;;;;;15.12;42.12;100638.03;9374314;31;20302;-71
2022/11/02 13:42:15;;;;;;;8.20;3.40;;;;;;;15.36;42.95;100563.97;9376258;30;20417;-71
2022/11/02 13:47:53;;;;;;;6.40;2.53;;;;;;;14.24;43.64;100646.19;9366721;31;72854;-71
2022/11/02 13:53:04;;;;;;;8.53;3.07;;;;;;;13.31;44.96;100617.91;9423074;31;20242;-70
2022/11/02 13:58:06;;;;;;;12.13;3.20;;;;;;;15.09;42.95;100596.09;9447934;31;20256;-70
2022/11/02 14:03:20;;;;;;;6.53;2.30;;;;;;;14.77;43.93;100600.97;9446093;31;20281;-70
2022/11/02 14:08:32;;;;;;;4.97;2.80;;;;;;;14.99;43.14;100610.94;9430026;31;20250;-72
2022/11/02 14:13:55;;;;;;;7.23;2.60;;;;;;;15.58;42.67;100559.34;9428265;31;20258;-70
2022/11/02 14:19:14;;;;;;;4.97;2.53;;;;;;;16.25;42.02;100529.94;9440295;31;20249;-70
2022/11/02 14:24:38;;;;;;;10.00;2.90;;;;;;;15.84;42.69;100550.56;9529639;30;1139463;-71
2022/11/02 14:29:46;;;;;;;11.30;3.63;;;;;;;16.09;42.93;100527.59;9684649;30;20279;-69
2022/11/02 14:34:59;;;;;;;10.53;3.33;;;;;;;15.94;42.77;100543.94;9704044;25;20594;-38
2022/11/02 14:40:13;;;;;;;9.00;3.10;;;;;;;16.13;43.02;100520.75;9695524;30;20731;-34
2022/11/02 14:45:40;;;;;;;16.73;5.63;;;;;;;16.41;43.00;100509.84;9701112;30;20327;-45
2022/11/02 14:50:56;;;;;;;15.90;7.90;;;;;;;15.59;43.61;100517.00;9719902;30;20244;-45
2022/11/02 14:55:58;;;;;;;10.60;4.53;;;;;;;16.04;43.54;100495.81;9672428;30;20240;-44
2022/11/02 15:01:02;;;;;;;7.60;3.70;;;;;;;15.90;43.34;100491.41;9713575;30;20243;-43
2022/11/02 15:06:10;;;;;;;8.07;2.90;;;;;;;16.74;43.09;100447.72;9712993;30;20236;-44
2022/11/02 15:11:50;;;;;;;5.53;3.27;;;;;;;17.03;42.93;100423.97;9711520;30;20742;-37
2022/11/02 15:16:53;;;;;;;14.13;9.00;;;;;;;16.05;44.01;100470.50;9692288;30;20244;-42
2022/11/02 15:22:32;;;;;;;7.07;3.27;;;;;;;16.72;43.62;100443.53;9712342;30;20252;-43
2022/11/02 15:27:37;;;;;;;11.47;3.50;;;;;;;16.01;43.87;100461.97;9925577;29;20740;-44
2022/11/02 15:32:44;;;;;;;5.47;2.73;;;;;;;16.98;42.53;100430.00;9997283;29;20241;-38
2022/11/02 15:37:46;;;;;;;8.47;3.03;;;;;;;16.58;42.67;100438.16;10000805;29;20219;-43
2022/11/02 15:43:22;;;;;;;7.90;3.97;;;;;;;17.10;42.82;100415.84;10005158;29;20286;-41
2022/11/02 15:48:39;;;;;;;103.93;15.77;;;;;;;16.50;43.89;100430.28;10009812;29;20473;-42
2022/11/02 15:54:11;;;;;;;23.23;6.50;;;;;;;15.96;45.39;100428.50;10011534;29;20599;-39
2022/11/02 15:59:37;;;;;;;18.30;5.73;;;;;;;16.41;44.85;100407.19;10011431;29;20300;-35
2022/11/02 16:04:44;;;;;;;13.63;4.20;;;;;;;16.81;43.96;100386.34;10031384;29;20269;-35
2022/11/02 16:09:46;;;;;;;12.10;4.07;;;;;;;15.58;45.56;100405.59;10029500;29;20571;-38
2022/11/02 16:14:56;;;;;;;9.63;2.70;;;;;;;16.49;44.31;100361.06;10029185;29;20241;-40
2022/11/02 16:20:08;;;;;;;12.57;3.33;;;;;;;16.30;44.64;100386.22;10028485;29;20486;-39
2022/11/02 16:25:17;;;;;;;14.53;6.37;;;;;;;16.01;45.00;100394.50;9947478;29;20241;-41
2022/11/02 16:30:21;;;;;;;9.33;4.80;;;;;;;16.17;44.65;100395.94;10205905;28;20237;-42
2022/11/02 16:35:23;;;;;;;15.77;5.80;;;;;;;16.33;44.20;100394.75;10200888;28;20329;-43
2022/11/02 16:40:26;;;;;;;10.80;5.47;;;;;;;15.02;46.27;100387.69;9983917;29;20677;-42
2022/11/02 16:45:41;;;;;;;12.03;5.90;;;;;;;14.03;47.90;100373.25;10694163;27;20309;-33
2022/11/02 16:51:05;;;;;;;9.40;4.23;;;;;;;16.02;45.09;100327.81;10564813;27;1330137;-34
2022/11/02 16:56:35;;;;;;;10.90;2.90;;;;;;;15.38;45.76;100370.44;10426681;28;20227;-31
2022/11/02 17:01:39;;;;;;;8.40;3.17;;;;;;;15.43;45.75;100364.44;10450799;28;20223;-31
2022/11/02 17:06:41;;;;;;;9.87;3.80;;;;;;;15.07;46.46;100358.28;10428510;28;20373;-33
2022/11/02 17:11:43;;;;;;;14.13;5.30;;;;;;;15.22;46.18;100352.75;10410486;28;20200;-32
2022/11/02 17:17:25;;;;;;;51.20;23.37;;;;;;;15.31;46.22;100356.09;10452131;28;20448;-32
2022/11/02 17:22:28;;;;;;;22.93;10.80;;;;;;;14.89;47.14;100331.03;10427498;28;20222;-34
2022/11/02 17:27:32;;;;;;;12.87;4.23;;;;;;;15.06;46.42;100337.75;10449771;28;20216;-32
2022/11/02 17:32:41;;;;;;;11.50;4.43;;;;;;;15.12;46.84;100342.34;10405265;28;20221;-34
2022/11/02 17:37:43;;;;;;;12.50;4.23;;;;;;;15.17;46.55;100338.19;10343843;28;20255;-32
2022/11/02 17:42:57;;;;;;;9.20;3.70;;;;;;;15.37;46.54;100322.94;10346831;28;20229;-34
2022/11/02 17:48:00;;;;;;;13.47;5.27;;;;;;;14.63;47.21;100346.00;10340821;28;20217;-32
2022/11/02 17:53:05;;;;;;;11.70;5.47;;;;;;;14.64;47.05;100344.94;10384925;28;20876;-34
2022/11/02 17:58:06;;;;;;;21.00;8.30;;;;;;;14.53;47.67;100340.13;10386227;28;20213;-33
2022/11/02 18:03:14;;;;;;;14.17;6.40;;;;;;;15.09;46.44;100320.34;10396171;28;20236;-34
2022/11/02 18:08:16;;;;;;;10.07;4.47;;;;;;;15.20;46.45;100330.56;10414482;28;20201;-31
2022/11/02 18:13:20;;;;;;;13.37;5.87;;;;;;;14.24;48.56;100325.88;10380604;28;20243;-33
2022/11/02 18:18:21;;;;;;;9.90;4.10;;;;;;;14.97;47.73;100298.53;10397828;28;20212;-34
2022/11/02 18:23:23;;;;;;;11.07;4.40;;;;;;;14.94;47.51;100307.84;10392549;28;20236;-34
2022/11/02 18:28:25;;;;;;;11.67;4.43;;;;;;;14.94;47.16;100310.53;10391837;28;20244;-34
2022/11/02 18:33:27;;;;;;;9.47;5.33;;;;;;;14.46;48.20;100326.63;10396955;28;20475;-34
2022/11/02 18:38:28;;;;;;;8.90;3.90;;;;;;;13.67;48.94;100317.66;10392920;28;20635;-32
2022/11/02 18:43:30;;;;;;;9.67;4.87;;;;;;;12.76;50.77;100281.47;10396769;28;20235;-34
2022/11/02 18:48:31;;;;;;;8.20;3.90;;;;;;;14.73;47.51;100252.19;10393780;28;20416;-34
2022/11/02 18:53:33;;;;;;;10.20;4.53;;;;;;;14.14;48.05;100295.75;10401901;28;20373;-34
2022/11/02 18:58:35;;;;;;;9.17;3.73;;;;;;;14.78;46.93;100283.94;10398028;28;20208;-31
2022/11/02 19:03:37;;;;;;;11.37;3.70;;;;;;;13.96;48.08;100315.84;10395336;28;20231;-32
2022/11/02 19:13:59;;;;;;;8.70;6.03;;;;;;;12.77;49.62;100286.63;10394202;28;20235;-32
2022/11/02 19:19:00;;;;;;;12.23;5.33;;;;;;;14.36;47.83;100265.06;10397483;28;20214;-31
2022/11/02 19:24:06;;;;;;;9.70;4.03;;;;;;;14.25;47.90;100267.47;10388215;28;20227;-32
2022/11/02 19:29:08;;;;;;;13.53;5.70;;;;;;;14.39;47.11;100263.81;10377681;28;20224;-33
2022/11/02 19:34:10;;;;;;;11.27;4.00;;;;;;;13.80;48.48;100287.38;10398447;28;20251;-32
2022/11/02 19:39:11;;;;;;;10.43;4.00;;;;;;;13.46;48.73;100285.41;10416553;28;20418;-34
2022/11/02 19:44:13;;;;;;;8.87;3.50;;;;;;;13.95;47.68;100262.25;10390563;28;20231;-31
2022/11/02 19:49:15;;;;;;;10.87;3.80;;;;;;;13.53;48.62;100272.00;10417451;28;20208;-31
2022/11/02 19:54:18;;;;;;;8.50;3.47;;;;;;;13.66;48.40;100254.16;10397720;28;20238;-31
2022/11/02 19:59:20;;;;;;;8.13;3.73;;;;;;;13.56;48.64;100269.78;10392302;28;20219;-32
2022/11/02 20:04:21;;;;;;;9.17;3.40;;;;;;;13.91;47.83;100253.75;10400523;28;20240;-34
2022/11/02 20:09:23;;;;;;;8.40;3.60;;;;;;;13.80;48.26;100256.94;10397549;28;20212;-34
2022/11/02 20:14:24;;;;;;;6.97;3.60;;;;;;;13.40;48.54;100278.13;10397592;28;20236;-32
2022/11/02 20:19:26;;;;;;;8.43;4.07;;;;;;;13.01;49.12;100279.28;10391994;28;20200;-32
2022/11/02 20:24:28;;;;;;;8.77;3.93;;;;;;;12.59;50.42;100253.97;10393126;28;20339;-33
2022/11/02 20:29:29;;;;;;;7.57;3.77;;;;;;;13.54;48.00;100222.59;10415940;28;20200;-34
2022/11/02 20:34:31;;;;;;;7.30;3.70;;;;;;;12.98;49.16;100245.59;10394953;28;20735;-33
2022/11/02 20:39:33;;;;;;;11.47;3.63;;;;;;;13.39;48.46;100222.69;10398190;28;20211;-34
2022/11/02 20:44:34;;;;;;;8.43;3.90;;;;;;;13.23;48.99;100234.50;10421547;28;20227;-35
2022/11/02 20:49:36;;;;;;;7.67;3.77;;;;;;;13.69;48.06;100206.41;10396144;28;20215;-35
2022/11/02 20:54:51;;;;;;;7.77;3.87;;;;;;;13.44;48.13;100225.63;10390174;28;20608;-34
2022/11/02 20:59:53;;;;;;;10.00;3.70;;;;;;;13.37;48.55;100227.41;10415799;28;20204;-42
2022/11/02 21:04:55;;;;;;;9.90;4.07;;;;;;;13.20;48.29;100240.25;10392684;28;20763;-41
2022/11/02 21:09:57;;;;;;;7.10;3.23;;;;;;;13.53;48.16;100212.88;10392524;28;20216;-42
2022/11/02 21:14:59;;;;;;;11.30;3.90;;;;;;;13.07;48.96;100238.22;10389296;28;20236;-41
2022/11/02 21:20:00;;;;;;;8.67;3.73;;;;;;;13.66;48.31;100203.03;10417360;28;20209;-42
2022/11/02 21:25:22;;;;;;;9.20;3.93;;;;;;;13.55;48.28;100208.13;10415287;28;20227;-41
2022/11/02 21:30:24;;;;;;;6.03;3.53;;;;;;;13.07;48.74;100230.19;10415729;28;20215;-42
2022/11/02 21:35:26;;;;;;;9.10;4.00;;;;;;;11.32;51.72;100195.66;10424102;28;20216;-43
2022/11/02 21:40:28;;;;;;;9.83;4.10;;;;;;;10.83;52.81;100183.41;10424788;28;20359;-43
2022/11/02 21:45:29;;;;;;;8.90;4.17;;;;;;;9.95;54.98;100161.19;10422336;28;20517;-41
2022/11/02 21:50:38;;;;;;;8.10;4.37;;;;;;;11.59;52.40;100154.03;10377840;28;20322;-44
2022/11/02 21:55:39;;;;;;;9.37;4.70;;;;;;;9.40;55.43;100150.22;10422765;28;20418;-40
2022/11/02 22:06:01;;;;;;;11.27;6.70;;;;;;;9.15;56.36;100144.03;10395434;28;20784;-42
2022/11/02 22:11:05;;;;;;;12.60;6.27;;;;;;;9.34;56.38;100134.84;10385160;28;20215;-43
2022/11/02 22:16:10;;;;;;;11.97;6.87;;;;;;;9.70;55.92;100133.66;10424571;28;20224;-44
2022/11/02 22:21:14;;;;;;;11.13;5.57;;;;;;;9.91;55.26;100123.28;10397378;28;20208;-45
2022/11/02 22:26:18;;;;;;;10.17;6.53;;;;;;;9.56;55.67;100130.66;10394270;28;20243;-41
2022/11/02 22:31:21;;;;;;;16.87;6.00;;;;;;;9.40;56.89;100120.84;10399434;28;20315;-42
2022/11/02 22:36:26;;;;;;;11.07;6.27;;;;;;;9.85;55.95;100110.59;10391664;28;20228;-44
2022/11/02 22:41:36;;;;;;;8.87;5.87;;;;;;;10.52;54.23;100099.44;10397808;28;20208;-41
2022/11/02 22:46:41;;;;;;;12.43;6.30;;;;;;;10.69;52.88;100124.25;10398639;28;20932;-43
2022/11/02 22:51:44;;;;;;;13.83;6.20;;;;;;;10.68;52.55;100113.72;10401320;28;20392;-41
2022/11/02 22:56:47;;;;;;;11.57;5.53;;;;;;;11.68;51.67;100074.44;10394526;28;20223;-41
2022/11/02 23:01:50;;;;;;;9.43;6.87;;;;;;;12.02;50.11;100124.81;10398660;28;20589;-42
2022/11/02 23:06:52;;;;;;;13.07;7.43;;;;;;;11.83;49.50;100144.13;10402188;28;20232;-41
2022/11/02 23:11:53;;;;;;;22.97;12.90;;;;;;;11.12;51.54;100171.19;10405746;28;20681;-43
2022/11/02 23:16:55;;;;;;;14.57;6.73;;;;;;;10.79;52.54;100166.06;10400574;28;20659;-40
2022/11/02 23:27:20;;;;;;;10.13;6.60;;;;;;;11.55;51.00;100126.78;10398391;28;20231;-39
2022/11/02 23:32:24;;;;;;;10.80;6.30;;;;;;;12.35;49.29;100102.91;10396626;28;20219;-36
2022/11/02 23:37:26;;;;;;;13.33;7.13;;;;;;;11.53;49.85;100163.66;10400170;28;20224;-41
2022/11/02 23:42:28;;;;;;;12.40;7.57;;;;;;;12.08;49.29;100134.81;10397686;28;20323;-43
2022/11/02 23:58:11;;;;;;;10.90;6.40;;;;;;;10.26;53.04;100153.25;10391549;28;20211;-47
